Current | Forecast
Updated: 12:30 PM MSK on April 21, 2018
Observed at Begishevo, Russia
Temperature 36°F
Windchill 32°F
Humidity 41%
Dew Point 14°F
Wind NW at 4 mph
Pressure 29.71 in (Steady)
Conditions Scattered Clouds
Visibility 6.2 miles
UV 6 out of 16
Clouds Scattered Clouds (SCT) : 2600 ft
Yesterday's Maximum 45°F
Yesterday's Minimum 32°F approx.
Yesterday's Heating Degree Days 27 approx.
Sunrise4:13 AM MSK
Sunset6:48 PM MSK
Moon Rise8:02 AM MSK
Moon Set12:00 AM MSK
Moon PhaseMoon Phase
Waxing Crescent
Raw METARMETAR UWKE 210930Z 31002MPS 9999 SCT026 02/M10 Q1006 R03/090070 NOSIG RMK QFE737/0983


Monday
. High: 71° F.
Tuesday
. High: 75° F.
Wednesday
. High: 66° F.
Thursday
. High: 53° F.
Friday
. High: 53° F.
Saturday
. High: 51° F.
Sunday
. High: 53° F.
Monday
. High: 59° F.

Units: English | Metric

Find the Weather for any City, State or Zipcode, or Country:

U.S. State List | Severe Weather | Tropical Storms | Ski Conditions
United States | Canada | Central America | South America | Asia | Europe | Australia | Africa | Islands

Weather Underground

© Copyright 2018
The Weather Company, LLC